Time;durP1;ratioP1;P1;durP2;ratioP2;P2;SDS_P1;SDS_P2;PMS_P1;PMS_P2;Temp;Humidity;BMP_temperature;BMP_pressure;BME280_temperature;BME280_humidity;BME280_pressure;Samples;Min_cycle;Max_cycle;Signal;HPM_P1;HPM_P2
2022/06/26 07:52:48;;;;;;;4.03;1.90;;;22.20;99.90;;;22.49;54.96;101158.59;4906758;28;98109;-72
2022/06/26 07:55:31;;;;;;;2.50;1.90;;;22.30;99.90;;;22.52;54.96;101165.56;4958896;23;97516;-72
2022/06/26 07:57:57;;;;;;;4.47;1.50;;;22.40;99.90;;;22.57;56.65;101166.09;4872840;28;97207;-70
2022/06/26 08:00:24;;;;;;;2.03;1.57;;;22.40;99.90;;;22.61;56.57;101169.38;4873073;28;98672;-72
2022/06/26 08:02:50;;;;;;;2.83;1.50;;;22.50;99.90;;;22.64;54.41;101172.69;4884713;28;97307;-72
2022/06/26 08:05:17;;;;;;;3.00;1.40;;;22.50;99.90;;;22.67;56.17;101175.13;4853443;28;97398;-70
2022/06/26 08:07:44;;;;;;;6.27;2.00;;;22.60;99.90;;;22.68;54.84;101184.91;4871049;28;99227;-70
2022/06/26 08:10:10;;;;;;;3.30;1.70;;;22.60;99.90;;;22.71;55.80;101190.06;4870359;28;97919;-72
2022/06/26 08:12:36;;;;;;;3.30;1.90;;;22.50;99.90;;;22.69;55.95;101186.63;4864332;28;100005;-72
2022/06/26 08:15:03;;;;;;;3.17;1.50;;;22.50;99.90;;;22.69;55.90;101189.31;4868641;28;97206;-72
2022/06/26 08:17:30;;;;;;;1.97;1.50;;;22.60;99.90;;;22.69;54.74;101183.94;4875009;28;97242;-70
2022/06/26 08:19:56;;;;;;;2.63;1.67;;;22.60;99.90;;;22.70;55.47;101193.69;4876010;28;97351;-70
2022/06/26 08:22:22;;;;;;;2.03;1.70;;;22.60;99.90;;;22.72;55.75;101191.78;4868859;28;97947;-72
2022/06/26 08:24:48;;;;;;;2.97;2.33;;;22.70;99.90;;;22.64;54.77;101194.19;4867503;28;96807;-70
2022/06/26 08:27:14;;;;;;;3.50;2.07;;;22.60;99.90;;;22.65;54.96;101198.59;4870362;28;97462;-70
2022/06/26 08:29:40;;;;;;;2.00;1.47;;;22.60;99.90;;;22.60;54.27;101198.09;4876739;28;98712;-70
2022/06/26 08:32:07;;;;;;;2.53;1.80;;;22.60;99.90;;;22.66;55.84;101189.56;4871459;28;97250;-70
2022/06/26 08:34:33;;;;;;;2.23;1.50;;;22.60;99.90;;;22.62;55.02;101201.53;4869718;28;97467;-70
2022/06/26 08:36:59;;;;;;;1.37;1.27;;;22.60;99.90;;;22.67;55.81;101195.78;4878993;28;98734;-70
2022/06/26 08:39:25;;;;;;;3.90;1.77;;;22.60;99.90;;;22.74;55.48;101200.56;4864496;28;97596;-70
2022/06/26 08:41:54;;;;;;;4.00;2.17;;;22.70;99.90;;;22.79;55.52;101195.69;4871575;28;97074;-70
2022/06/26 08:44:23;;;;;;;2.87;1.70;;;22.70;99.90;;;22.84;55.51;101190.81;4851067;28;98295;-70
2022/06/26 08:46:49;;;;;;;2.47;1.80;;;22.70;99.90;;;22.85;53.04;101197.91;4878663;28;96867;-70
2022/06/26 08:49:20;;;;;;;2.90;1.83;;;22.80;99.90;;;22.85;54.30;101207.81;4871157;28;97365;-70
2022/06/26 08:51:48;;;;;;;4.13;1.60;;;22.80;99.90;;;22.64;53.77;101212.16;4879608;28;96975;-70
2022/06/26 08:54:15;;;;;;;2.67;1.80;;;22.60;99.90;;;22.67;55.10;101210.09;4855020;28;97605;-70
2022/06/26 08:56:44;;;;;;;5.43;1.53;;;22.60;99.90;;;22.70;55.47;101208.97;4864248;28;99673;-73
2022/06/26 08:59:16;;;;;;;3.13;1.57;;;22.60;99.90;;;22.76;55.28;101214.75;4871933;28;97318;-71
2022/06/26 09:01:43;;;;;;;1.97;1.50;;;22.70;99.90;;;22.75;52.84;101204.97;4873169;28;97318;-70
2022/06/26 09:04:10;;;;;;;1.77;1.50;;;22.70;99.90;;;22.77;53.29;101208.41;4875150;28;97720;-70
2022/06/26 09:06:39;;;;;;;2.67;1.37;;;22.60;99.90;;;22.75;53.68;101207.66;4875048;28;97773;-70
2022/06/26 09:09:25;;;;;;;2.43;1.40;;;22.60;99.90;;;22.68;55.45;101201.03;4859177;28;97476;-71
2022/06/26 09:11:54;;;;;;;1.70;1.40;;;22.60;99.90;;;22.73;55.45;101203.38;4892965;28;97585;-70
2022/06/26 09:14:22;;;;;;;2.80;1.50;;;22.60;99.90;;;22.76;54.62;101204.00;4856554;28;97100;-70
2022/06/26 09:16:51;;;;;;;2.87;2.00;;;22.70;99.90;;;22.76;54.36;101198.63;4863309;28;96814;-70
2022/06/26 09:19:24;;;;;;;2.80;1.83;;;22.70;99.90;;;22.78;54.93;101204.72;4867498;28;96760;-70
2022/06/26 09:21:52;;;;;;;3.20;2.03;;;22.70;99.90;;;22.81;54.21;101211.69;4863039;28;97379;-69
2022/06/26 09:24:22;;;;;;;2.67;1.90;;;22.70;99.90;;;22.84;53.62;101217.72;4885347;28;96886;-71
2022/06/26 09:27:10;;;;;;;2.50;1.60;;;22.70;99.90;;;22.89;52.60;101219.22;4868001;28;97563;-70
2022/06/26 09:29:39;;;;;;;2.27;1.90;;;22.70;99.90;;;22.88;52.87;101217.50;4872052;28;101685;-70
2022/06/26 09:32:13;;;;;;;2.57;2.00;;;22.70;99.90;;;22.91;53.62;101211.88;4861602;28;97127;-70
2022/06/26 09:34:45;;;;;;;1.97;1.60;;;22.70;99.90;;;22.89;54.64;101213.84;4875915;28;97044;-71
2022/06/26 09:37:11;;;;;;;2.00;1.20;;;22.80;99.90;;;22.84;52.82;101217.72;4875373;28;97246;-71
2022/06/26 09:39:37;;;;;;;3.17;1.33;;;22.80;99.90;;;22.87;52.77;101216.66;4874852;28;98344;-70
2022/06/26 09:42:16;;;;;;;1.93;1.30;;;22.80;99.90;;;22.90;49.28;101212.84;4869240;28;96989;-71
2022/06/26 09:44:47;;;;;;;2.13;1.60;;;22.80;99.90;;;22.90;54.47;101220.94;4862834;28;97059;-70
2022/06/26 09:47:36;;;;;;;2.13;1.40;;;22.80;99.90;;;22.92;54.69;101229.72;4859841;28;97188;-70
2022/06/26 09:50:08;;;;;;;2.23;1.93;;;22.80;99.90;;;22.90;54.79;101221.78;4855761;28;99995;-70
2022/06/26 09:52:34;;;;;;;1.83;1.70;;;22.80;99.90;;;22.92;53.33;101218.97;4860212;28;99750;-70
2022/06/26 09:55:03;;;;;;;2.10;1.90;;;22.80;99.90;;;22.92;51.69;101225.19;4861774;28;96925;-70
2022/06/26 09:57:29;;;;;;;2.30;1.53;;;22.80;99.90;;;22.87;53.76;101231.94;4860679;28;97161;-70
2022/06/26 09:59:56;;;;;;;1.93;1.70;;;22.80;99.90;;;22.88;54.55;101233.66;4887177;28;97198;-70
2022/06/26 10:08:05;;;;;;;2.33;1.87;;;22.80;99.90;;;22.90;54.42;101229.00;4873405;28;97442;-70
2022/06/26 10:10:34;;;;;;;1.87;1.53;;;22.80;99.90;;;22.92;53.28;101227.88;4859811;28;102300;-70
2022/06/26 10:13:05;;;;;;;3.03;1.73;;;22.90;99.90;;;22.93;51.95;101228.75;4882621;28;98740;-70
2022/06/26 10:15:53;;;;;;;1.30;1.20;;;22.80;99.90;;;22.96;54.23;101225.81;4870441;28;96904;-70
2022/06/26 10:19:07;;;;;;;2.67;1.83;;;22.80;99.90;;;22.96;52.09;101225.81;4871961;28;99642;-70
2022/06/26 10:21:39;;;;;;;2.30;1.90;;;22.80;99.90;;;22.89;52.04;101233.53;4871688;28;103776;-70
2022/06/26 10:24:06;;;;;;;2.40;2.20;;;22.70;99.90;;;22.86;50.11;101247.22;4866537;28;97639;-71
2022/06/26 10:26:33;;;;;;;2.53;2.33;;;22.70;99.90;;;22.84;52.04;101238.38;4866918;28;97102;-70
2022/06/26 10:29:09;;;;;;;2.00;1.80;;;22.60;99.90;;;22.87;52.13;101242.69;4860962;28;101541;-70
2022/06/26 10:31:49;;;;;;;3.80;2.00;;;22.60;99.90;;;22.88;52.53;101239.03;4874539;28;102695;-70
2022/06/26 10:34:21;;;;;;;2.77;2.43;;;22.70;99.90;;;22.85;52.41;101234.72;4871823;28;96986;-71
2022/06/26 10:37:14;;;;;;;3.53;2.50;;;22.70;99.90;;;22.85;53.94;101235.56;4859602;28;98122;-70
2022/06/26 10:39:43;;;;;;;2.33;2.03;;;22.70;99.90;;;22.85;53.07;101229.34;4864074;28;97289;-70
2022/06/26 10:45:36;;;;;;;3.70;2.20;;;22.70;99.90;;;22.84;54.23;101233.84;4873307;28;97150;-70
2022/06/26 10:48:26;;;;;;;3.27;2.40;;;22.60;99.90;;;22.82;54.52;101235.81;4879194;28;97525;-70
2022/06/26 10:51:01;;;;;;;2.60;2.10;;;22.70;99.90;;;22.84;54.10;101228.47;4858385;28;97310;-70
2022/06/26 10:53:35;;;;;;;4.20;1.83;;;22.70;99.90;;;22.87;54.68;101232.78;4860913;28;98117;-70
2022/06/26 10:56:05;;;;;;;2.43;2.10;;;22.80;99.90;;;22.91;53.33;101228.00;4890119;28;97066;-70
2022/06/26 10:58:42;;;;;;;1.80;1.70;;;22.80;99.90;;;22.93;54.05;101232.28;4868414;28;97326;-70
2022/06/26 11:01:11;;;;;;;2.63;2.00;;;22.80;99.90;;;22.95;54.31;101232.16;4870705;28;97713;-70
2022/06/26 11:03:38;;;;;;;2.20;2.00;;;22.90;99.90;;;22.96;49.50;101226.66;4863724;28;97211;-70
2022/06/26 11:06:09;;;;;;;4.90;2.30;;;22.90;99.90;;;22.98;51.15;101223.84;4891616;28;98273;-73
2022/06/26 11:08:50;;;;;;;2.23;1.97;;;22.90;99.90;;;23.00;51.54;101233.53;4870360;28;96778;-70
2022/06/26 11:11:27;;;;;;;5.27;2.00;;;22.90;99.90;;;23.01;53.31;101240.63;4856186;28;96838;-70
2022/06/26 11:13:57;;;;;;;4.10;2.17;;;22.90;99.90;;;23.01;50.27;101234.41;4869678;28;97456;-70
2022/06/26 11:16:42;;;;;;;2.10;1.90;;;22.80;99.90;;;23.02;50.11;101241.50;4871022;28;99191;-70
2022/06/26 11:19:25;;;;;;;3.97;2.20;;;22.90;99.90;;;23.01;53.22;101242.47;4853220;28;97135;-70
2022/06/26 11:22:11;;;;;;;2.33;2.07;;;22.90;99.90;;;23.03;53.82;101243.19;4857715;28;97533;-70
2022/06/26 11:24:55;;;;;;;3.30;2.13;;;22.90;99.90;;;23.05;53.23;101252.00;4869041;28;101862;-71
2022/06/26 11:27:23;;;;;;;2.27;1.70;;;23.00;99.90;;;23.05;54.00;101252.00;4870021;28;97669;-70
2022/06/26 11:29:49;;;;;;;5.97;2.10;;;23.00;99.90;;;23.06;52.58;101242.94;4868143;28;98536;-70
2022/06/26 11:32:16;;;;;;;4.57;2.27;;;23.00;99.90;;;23.07;51.27;101239.28;4863118;28;97687;-70
2022/06/26 11:34:50;;;;;;;3.93;1.90;;;23.00;99.90;;;23.09;50.36;101243.56;4844253;28;98567;-70
2022/06/26 11:37:17;;;;;;;2.50;2.10;;;23.00;99.90;;;23.06;50.04;101237.56;4865930;28;97007;-70
2022/06/26 11:39:43;;;;;;;2.30;2.10;;;22.90;99.90;;;23.04;53.88;101245.75;4871267;28;97706;-70
2022/06/26 11:42:23;;;;;;;4.63;2.20;;;22.90;99.90;;;23.06;52.18;101245.63;4869049;28;97255;-71
2022/06/26 11:44:53;;;;;;;3.07;2.10;;;23.00;99.90;;;23.04;53.79;101245.75;4867442;28;99830;-70
2022/06/26 11:47:21;;;;;;;4.22;2.22;;;23.00;99.90;;;23.05;53.15;101241.25;4872776;28;97001;-70
2022/06/26 11:49:47;;;;;;;2.87;2.10;;;23.00;99.90;;;23.06;53.97;101242.94;4864815;28;97260;-70
2022/06/26 11:52:14;;;;;;;4.53;1.97;;;23.00;99.90;;;23.06;50.80;101248.31;4861438;28;96728;-70
2022/06/26 11:54:40;;;;;;;2.70;1.90;;;23.00;99.90;;;23.07;50.40;101250.03;4866967;28;97390;-70
2022/06/26 11:57:10;;;;;;;4.37;2.00;;;23.00;99.90;;;23.06;52.82;101248.31;4864815;28;97155;-71
2022/06/26 11:59:44;;;;;;;2.23;1.80;;;23.00;99.90;;;23.06;53.98;101233.03;4868328;28;97584;-70
2022/06/26 12:02:20;;;;;;;3.93;2.10;;;23.00;99.90;;;23.05;53.11;101225.09;4875424;28;97138;-70
2022/06/26 12:05:05;;;;;;;5.27;2.07;;;22.90;99.90;;;23.06;52.34;101229.50;4853603;28;99425;-70
2022/06/26 12:07:46;;;;;;;2.43;1.93;;;22.90;99.90;;;23.05;54.07;101223.25;4863286;28;101063;-70
2022/06/26 12:10:24;;;;;;;2.30;1.90;;;22.90;99.90;;;23.01;53.98;101232.56;4872592;28;97283;-70
2022/06/26 12:12:52;;;;;;;2.27;2.07;;;22.90;99.90;;;23.02;53.68;101244.19;4896739;28;97484;-70
2022/06/26 12:15:18;;;;;;;4.97;2.63;;;22.90;99.90;;;23.02;54.86;101236.09;4867454;28;97615;-70
2022/06/26 12:17:58;;;;;;;2.43;1.97;;;22.90;99.90;;;23.01;55.26;101229.00;4860638;28;100263;-71
2022/06/26 12:20:24;;;;;;;3.70;2.00;;;22.90;99.90;;;22.97;55.59;101232.91;4870482;28;97041;-70
2022/06/26 12:22:54;;;;;;;2.97;2.17;;;22.80;99.90;;;22.97;55.70;101240.97;4860335;28;97382;-70
2022/06/26 12:25:32;;;;;;;2.67;2.20;;;22.80;99.90;;;22.95;56.13;101227.66;4878119;28;97431;-71
2022/06/26 12:28:00;;;;;;;5.53;2.93;;;22.80;99.90;;;22.94;55.95;101230.47;4878932;28;97677;-70
2022/06/26 12:30:33;;;;;;;4.30;2.70;;;22.70;99.90;;;22.92;58.32;101232.41;4874897;28;97156;-70
2022/06/26 12:33:04;;;;;;;2.80;2.30;;;22.70;99.90;;;22.88;60.61;101239.03;4878415;28;97438;-70
2022/06/26 12:35:31;;;;;;;3.63;2.83;;;22.70;99.90;;;22.80;62.68;101253.88;4880085;28;102666;-70
2022/06/26 12:37:58;;;;;;;3.10;2.60;;;22.60;99.90;;;22.74;58.76;101251.66;4842813;28;97751;-70
2022/06/26 12:40:25;;;;;;;4.57;3.03;;;22.50;99.90;;;22.74;56.32;101254.34;4846476;28;97459;-70
2022/06/26 12:42:51;;;;;;;4.53;2.47;;;22.50;99.90;;;22.74;55.59;101259.75;4873474;28;96625;-70
2022/06/26 12:45:17;;;;;;;4.50;2.53;;;22.50;99.90;;;22.77;55.41;101262.19;4880658;28;100445;-70
2022/06/26 12:47:43;;;;;;;4.43;3.10;;;22.60;99.90;;;22.79;56.17;101262.91;4868889;28;97671;-70
2022/06/26 12:50:11;;;;;;;6.90;2.60;;;22.60;99.90;;;22.71;60.37;101259.97;4859281;28;97113;-62
2022/06/26 12:52:37;;;;;;;5.03;3.07;;;22.60;99.90;;;22.48;59.46;101268.94;4864916;28;97230;-69
2022/06/26 12:55:08;;;;;;;4.83;3.10;;;22.10;99.90;;;22.51;59.97;101266.00;4865281;28;97384;-70
2022/06/26 12:57:34;;;;;;;2.77;2.57;;;22.10;99.90;;;22.50;57.51;101261.59;4876071;28;102039;-69
2022/06/26 13:00:01;;;;;;;2.70;2.50;;;22.20;99.90;;;22.50;57.84;101262.47;4866341;28;97788;-69
2022/06/26 13:02:27;;;;;;;3.77;2.90;;;22.20;99.90;;;22.50;57.88;101272.34;4867869;28;99038;-69
2022/06/26 13:04:53;;;;;;;3.37;1.93;;;22.20;99.90;;;22.51;57.02;101263.31;4867219;28;97310;-69
2022/06/26 13:07:19;;;;;;;3.30;2.20;;;22.30;99.90;;;22.55;56.90;101254.91;4860169;28;97923;-69
2022/06/26 13:09:46;;;;;;;3.00;2.30;;;22.30;99.90;;;22.59;56.59;101257.38;4878982;28;97163;-69
2022/06/26 13:12:13;;;;;;;4.53;2.57;;;22.40;99.90;;;22.63;60.79;101262.38;4865791;28;97559;-69
2022/06/26 13:14:39;;;;;;;3.50;2.60;;;22.40;99.90;;;22.66;57.41;101256.78;4877682;28;97441;-69
2022/06/26 13:17:05;;;;;;;3.37;2.70;;;22.50;99.90;;;22.69;57.96;101255.66;4870997;28;97198;-70
2022/06/26 13:19:31;;;;;;;2.97;2.17;;;22.50;99.90;;;22.72;56.20;101245.56;4868151;28;97223;-69
2022/06/26 13:21:57;;;;;;;4.40;2.47;;;22.60;99.90;;;22.76;56.98;101246.16;4888954;28;97156;-69
2022/06/26 13:24:23;;;;;;;3.10;2.50;;;22.60;99.90;;;22.79;58.91;101230.66;4861652;28;97326;-69
2022/06/26 13:26:49;;;;;;;2.70;2.00;;;22.70;99.90;;;22.80;56.12;101221.59;4889366;28;100213;-69
2022/06/26 13:29:16;;;;;;;4.37;2.33;;;22.70;99.90;;;22.82;56.99;101222.38;4864606;28;97310;-69
2022/06/26 13:31:42;;;;;;;2.00;1.80;;;22.70;99.90;;;22.83;55.74;101221.38;4861220;28;97394;-69
2022/06/26 13:34:08;;;;;;;2.37;2.00;;;22.70;99.90;;;22.84;55.84;101211.47;4866225;28;97733;-70
2022/06/26 13:36:34;;;;;;;2.73;1.80;;;22.70;99.90;;;22.87;56.11;101205.03;4868713;28;96804;-69
2022/06/26 13:39:02;;;;;;;2.33;1.87;;;22.80;99.90;;;22.89;58.66;101197.69;4864111;28;98156;-69
2022/06/26 13:41:28;;;;;;;2.63;1.77;;;22.80;99.90;;;22.89;55.66;101203.94;4861455;28;97657;-69
2022/06/26 13:43:54;;;;;;;3.37;2.00;;;22.80;99.90;;;22.88;55.78;101195.97;4866220;28;98721;-69
2022/06/26 13:46:20;;;;;;;4.30;1.80;;;22.80;99.90;;;22.92;58.58;101203.69;4864595;28;96896;-69
2022/06/26 13:48:46;;;;;;;1.60;1.50;;;22.80;99.90;;;22.93;55.81;101188.41;4871984;28;97270;-69
2022/06/26 13:51:12;;;;;;;2.20;2.00;;;22.80;99.90;;;22.97;57.20;101189.84;4867623;28;96818;-70
2022/06/26 13:53:38;;;;;;;4.63;2.60;;;22.80;99.90;;;22.95;56.68;101191.81;4866980;28;98051;-70
2022/06/26 13:56:04;;;;;;;2.73;2.00;;;22.80;99.90;;;22.94;55.58;101195.50;4866865;28;98846;-72
2022/06/26 13:58:30;;;;;;;2.67;2.43;;;22.80;99.90;;;22.92;56.08;101187.53;4868914;28;97150;-70
2022/06/26 14:00:56;;;;;;;4.37;2.60;;;22.80;99.90;;;22.90;56.69;101200.25;4863127;28;96936;-69
2022/06/26 14:03:23;;;;;;;4.80;2.67;;;22.70;99.90;;;22.89;58.41;101201.25;4868347;28;98076;-69
2022/06/26 14:05:49;;;;;;;6.90;3.20;;;22.70;99.90;;;22.87;57.44;101191.59;4866463;28;98948;-70
2022/06/26 14:08:15;;;;;;;6.23;3.00;;;22.70;99.90;;;22.83;58.58;101199.00;4869725;28;98683;-69
2022/06/26 14:10:41;;;;;;;3.57;3.03;;;22.60;99.90;;;22.80;58.54;101200.09;4876971;28;96811;-70
2022/06/26 14:13:07;;;;;;;2.33;2.10;;;22.60;99.90;;;22.78;56.62;101207.41;4872203;28;97096;-69
2022/06/26 14:15:33;;;;;;;3.70;3.20;;;22.50;99.90;;;22.78;57.50;101207.41;4868219;28;97226;-69
2022/06/26 14:17:59;;;;;;;7.73;3.10;;;22.50;99.90;;;22.78;58.01;101202.03;4873470;28;99286;-70
2022/06/26 14:20:25;;;;;;;2.40;1.90;;;22.50;99.90;;;22.79;56.94;101214.50;4873852;28;99934;-70
2022/06/26 14:28:20;;;;;;;3.63;3.33;;;22.60;99.90;;;22.77;59.04;101205.72;4867916;28;98310;-70
2022/06/26 14:30:46;;;;;;;4.53;4.07;;;22.60;99.90;;;22.74;58.30;101205.97;4872127;28;96853;-70
2022/06/26 14:33:15;;;;;;;3.27;2.93;;;22.50;99.90;;;22.74;57.68;101197.88;4863336;28;97565;-70
2022/06/26 14:35:41;;;;;;;5.33;4.00;;;22.50;99.90;;;22.75;58.42;101202.28;4859814;28;96804;-69
2022/06/26 14:38:07;;;;;;;3.50;3.20;;;22.50;99.90;;;22.75;56.89;101196.91;4884374;28;97265;-69
2022/06/26 14:41:12;;;;;;;2.37;1.97;;;22.60;99.90;;;22.78;58.67;101198.50;4868042;28;97221;-69
2022/06/26 14:43:38;;;;;;;3.70;3.10;;;22.60;99.90;;;22.73;57.72;101204.25;4829903;28;100466;-69
2022/06/26 14:46:11;;;;;;;2.33;1.70;;;22.50;99.90;;;22.73;56.82;101198.88;4884394;28;97522;-69
2022/06/26 14:49:27;;;;;;;3.90;3.50;;;22.50;99.90;;;22.74;57.67;101200.56;4878431;28;97164;-69
2022/06/26 14:51:53;;;;;;;5.00;3.60;;;22.50;99.90;;;22.72;59.53;101199.84;4865490;28;97387;-69
2022/06/26 14:54:18;;;;;;;4.30;3.90;;;22.50;99.90;;;22.72;58.01;101202.53;4876138;28;96976;-70
2022/06/26 14:56:44;;;;;;;6.10;4.17;;;22.50;99.90;;;22.73;56.97;101209.63;4870286;28;97197;-69
2022/06/26 14:59:10;;;;;;;3.27;2.97;;;22.50;99.90;;;22.73;56.36;101209.63;4869279;28;97314;-70
2022/06/26 15:01:36;;;;;;;3.47;3.00;;;22.60;99.90;;;22.74;56.57;101200.56;4866514;28;96818;-70
2022/06/26 15:04:02;;;;;;;4.87;3.10;;;22.60;99.90;;;22.74;56.26;101199.72;4870417;28;97003;-70
2022/06/26 15:06:28;;;;;;;4.53;3.10;;;22.60;99.90;;;22.76;56.30;101193.25;4864649;28;97161;-69
2022/06/26 15:08:54;;;;;;;3.63;3.00;;;22.60;99.90;;;22.77;57.68;101194.94;4867757;28;97637;-69
2022/06/26 15:11:20;;;;;;;3.83;2.60;;;22.60;99.90;;;22.76;56.40;101187.88;4877561;28;96960;-70
2022/06/26 15:13:45;;;;;;;3.67;2.80;;;22.60;99.90;;;22.76;57.71;101193.25;4867263;28;97082;-70
2022/06/26 15:16:12;;;;;;;3.67;2.70;;;22.60;99.90;;;22.74;57.48;101197.03;4870559;28;96678;-70
2022/06/26 15:18:38;;;;;;;3.90;2.50;;;22.50;99.90;;;22.72;56.31;101191.78;4887934;28;97124;-70
2022/06/26 15:21:05;;;;;;;5.10;2.67;;;22.50;99.90;;;22.74;56.23;101195.19;4877173;28;100094;-70
2022/06/26 15:23:32;;;;;;;3.80;2.20;;;22.60;99.90;;;22.76;56.34;101190.56;4860793;28;101906;-69
2022/06/26 15:25:59;;;;;;;1.83;1.73;;;22.60;99.90;;;22.77;56.24;101196.78;4870575;28;97197;-69
2022/06/26 15:28:24;;;;;;;3.80;2.33;;;22.60;99.90;;;22.78;56.73;101196.66;4873285;28;97530;-70
2022/06/26 15:30:51;;;;;;;3.10;1.70;;;22.60;99.90;;;22.77;56.19;101194.94;4861069;28;97043;-70
2022/06/26 15:33:17;;;;;;;3.07;2.40;;;22.60;99.90;;;22.77;57.34;101194.94;4859566;28;97423;-69
2022/06/26 15:35:43;;;;;;;1.60;1.50;;;22.60;99.90;;;22.77;56.11;101192.25;4869304;28;97112;-69
2022/06/26 15:38:09;;;;;;;1.83;1.70;;;22.60;99.90;;;22.78;56.28;101185.91;4863971;28;96996;-70
2022/06/26 15:40:35;;;;;;;4.47;2.50;;;22.60;99.90;;;22.80;56.24;101183.94;4865674;28;97052;-69
2022/06/26 15:43:01;;;;;;;2.67;2.47;;;22.60;99.90;;;22.80;56.89;101192.03;4876522;28;97423;-69
2022/06/26 15:45:27;;;;;;;2.47;2.17;;;22.60;99.90;;;22.79;56.45;101193.00;4869634;28;97075;-69
2022/06/26 15:47:53;;;;;;;1.47;1.37;;;22.60;99.90;;;22.80;56.21;101189.31;4869202;28;97644;-70
2022/06/26 15:50:19;;;;;;;1.73;1.60;;;22.60;99.90;;;22.81;56.29;101185.66;4868149;28;103171;-70
2022/06/26 15:52:45;;;;;;;1.67;1.57;;;22.60;99.90;;;22.82;55.96;101190.09;4871812;28;97331;-70
2022/06/26 15:55:12;;;;;;;1.73;1.50;;;22.70;99.90;;;22.83;55.95;101178.34;4858178;28;97328;-70
2022/06/26 15:57:38;;;;;;;1.60;1.50;;;22.70;99.90;;;22.86;55.83;101171.91;4873664;28;97279;-70
2022/06/26 16:00:06;;;;;;;2.23;1.53;;;22.70;99.90;;;22.88;55.71;101179.84;4867820;28;99761;-72
2022/06/26 16:02:32;;;;;;;1.53;1.33;;;22.80;99.90;;;22.91;55.74;101176.91;4866932;28;102257;-70
2022/06/26 16:05:00;;;;;;;1.60;1.50;;;22.80;99.90;;;22.94;55.85;101179.34;4875141;28;97103;-70
2022/06/26 16:07:27;;;;;;;1.37;1.20;;;22.80;99.90;;;22.95;55.58;101178.38;4871411;28;97181;-69
2022/06/26 16:09:53;;;;;;;1.53;1.43;;;22.90;99.90;;;22.95;55.37;101175.69;4877892;28;96824;-69
2022/06/26 16:12:19;;;;;;;1.47;1.30;;;22.90;99.90;;;22.97;55.41;101174.56;4861721;28;97709;-70
2022/06/26 16:14:44;;;;;;;2.77;1.70;;;22.90;99.90;;;22.98;55.23;101165.53;4872326;28;97914;-69
2022/06/26 16:17:11;;;;;;;1.20;1.10;;;22.90;99.90;;;22.99;55.35;101155.63;4869958;28;97283;-70
2022/06/26 16:19:39;;;;;;;1.30;1.20;;;23.00;99.90;;;23.01;55.34;101154.53;4871380;28;97254;-70
2022/06/26 16:27:35;;;;;;;1.30;1.20;;;23.00;99.90;;;23.01;55.26;101148.31;4881831;28;97224;-70
2022/06/26 16:30:01;;;;;;;1.57;1.47;;;23.00;99.90;;;22.99;55.33;101151.09;4877543;28;97399;-70
2022/06/26 16:32:28;;;;;;;1.40;1.30;;;23.00;99.90;;;22.97;55.44;101141.44;4865909;28;97706;-70
2022/06/26 16:34:54;;;;;;;1.73;1.43;;;23.00;99.90;;;22.95;55.32;101138.03;4871573;28;100046;-70
2022/06/26 16:37:20;;;;;;;1.90;1.30;;;23.00;99.90;;;22.97;55.24;101134.22;4839563;28;96968;-70
2022/06/26 16:39:46;;;;;;;4.37;1.50;;;23.00;99.90;;;23.00;55.27;101136.69;4858559;28;96928;-69
2022/06/26 16:42:12;;;;;;;2.47;1.23;;;23.00;99.90;;;23.01;55.31;101126.78;4848754;28;97951;-70
2022/06/26 16:44:37;;;;;;;1.50;1.40;;;23.00;99.90;;;23.06;55.04;101129.94;4857513;28;98602;-69
2022/06/26 16:47:04;;;;;;;1.50;1.40;;;23.00;99.90;;;23.05;55.20;101117.47;4864128;28;97182;-69
2022/06/26 16:49:30;;;;;;;1.87;1.33;;;23.00;99.90;;;23.05;55.10;101112.09;4863551;28;97100;-70
2022/06/26 16:51:55;;;;;;;1.30;1.20;;;23.00;99.90;;;23.00;55.20;101108.91;4869525;28;99301;-70
2022/06/26 16:54:22;;;;;;;1.57;1.47;;;23.00;99.90;;;23.02;55.25;101096.22;4862366;28;97113;-70
2022/06/26 16:56:48;;;;;;;2.00;1.30;;;23.00;99.90;;;23.06;55.16;101093.13;4878444;28;97769;-69
2022/06/26 16:59:14;;;;;;;1.50;1.40;;;23.00;99.90;;;23.05;55.24;101090.56;4869858;28;97703;-70
2022/06/26 17:01:39;;;;;;;1.30;1.20;;;23.00;99.90;;;23.06;55.21;101081.53;4868301;28;97526;-69
2022/06/26 17:04:05;;;;;;;1.40;1.17;;;23.00;99.90;;;23.06;55.32;101076.16;4864958;28;99196;-72
2022/06/26 17:06:31;;;;;;;1.50;1.40;;;23.00;99.90;;;23.07;55.14;101083.22;4867463;28;96747;-70
2022/06/26 17:08:57;;;;;;;1.43;1.33;;;23.10;99.90;;;23.09;55.16;101092.03;4892687;28;97472;-70
2022/06/26 17:11:23;;;;;;;1.35;1.15;;;23.10;99.90;;;23.06;55.22;101082.38;4886840;28;97728;-70
2022/06/26 17:13:49;;;;;;;1.40;1.27;;;23.00;99.90;;;23.04;55.11;101086.19;4866720;28;97127;-69
2022/06/26 17:16:16;;;;;;;1.67;1.57;;;23.00;99.90;;;23.04;55.25;101083.50;4870035;28;98618;-70
2022/06/26 17:18:44;;;;;;;2.20;1.30;;;23.00;99.90;;;23.03;55.13;101087.16;4881686;28;97262;-70
2022/06/26 17:21:10;;;;;;;1.57;1.47;;;23.00;99.90;;;22.98;55.49;101083.97;4862866;28;99632;-70
2022/06/26 17:23:38;;;;;;;1.93;1.50;;;23.00;99.90;;;22.99;55.45;101085.69;4864898;28;97286;-70
2022/06/26 17:26:05;;;;;;;1.40;1.30;;;23.00;99.90;;;23.00;55.27;101095.44;4861976;28;97159;-70
2022/06/26 17:28:31;;;;;;;1.60;1.33;;;23.00;99.90;;;23.07;55.21;101104.75;4859727;28;97503;-70
2022/06/26 17:30:58;;;;;;;2.97;2.23;;;23.10;99.90;;;23.10;55.18;101107.19;4858883;28;97234;-70
2022/06/26 17:33:24;;;;;;;1.73;1.60;;;23.00;99.90;;;23.10;55.08;101096.44;4872518;28;97004;-70
2022/06/26 17:35:50;;;;;;;2.83;1.70;;;23.00;99.90;;;23.07;55.12;101094.00;4873503;28;97474;-70
2022/06/26 17:38:16;;;;;;;1.77;1.67;;;23.00;99.90;;;23.07;55.12;101094.00;4848144;28;97564;-70
2022/06/26 17:40:44;;;;;;;1.53;1.43;;;23.00;99.90;;;23.08;55.26;101084.94;4874855;28;97243;-70
2022/06/26 17:43:10;;;;;;;1.60;1.50;;;23.00;99.90;;;23.09;55.27;101081.28;4867388;28;98585;-70
2022/06/26 17:45:37;;;;;;;1.40;1.30;;;23.00;99.90;;;23.08;55.04;101074.19;4872816;28;97449;-70
2022/06/26 17:48:04;;;;;;;1.40;1.30;;;23.00;99.90;;;23.08;55.14;101074.19;4871507;28;97302;-70
2022/06/26 17:50:32;;;;;;;1.40;1.30;;;23.00;99.90;;;23.07;55.12;101072.47;4867135;28;100367;-70
2022/06/26 17:53:00;;;;;;;1.77;1.33;;;23.00;99.90;;;23.08;54.99;101079.56;4869926;28;100059;-70
2022/06/26 17:55:29;;;;;;;1.50;1.27;;;23.00;99.90;;;23.10;54.98;101074.91;4873078;28;97177;-70
2022/06/26 17:57:56;;;;;;;1.50;1.40;;;23.00;99.90;;;23.06;55.01;101076.16;4865874;28;97164;-70
2022/06/26 18:00:24;;;;;;;1.87;1.47;;;23.00;99.90;;;23.07;55.02;101077.84;4865481;28;98074;-70
2022/06/26 18:03:05;;;;;;;1.47;1.37;;;23.00;99.90;;;23.11;55.03;101073.91;4870030;28;98566;-70
2022/06/26 18:09:19;;;;;;;1.43;1.33;;;23.00;99.90;;;23.07;55.14;101083.22;4855921;28;97774;-69
2022/06/26 18:11:46;;;;;;;2.83;2.10;;;23.00;99.90;;;23.06;55.23;101078.84;4858330;28;99134;-69
2022/06/26 18:14:12;;;;;;;3.07;2.40;;;23.00;99.90;;;23.05;55.15;101095.97;4855629;28;97945;-69
2022/06/26 18:16:38;;;;;;;2.97;2.17;;;23.00;99.90;;;23.02;55.15;101096.22;4862848;28;96709;-70
2022/06/26 18:19:04;;;;;;;1.90;1.63;;;22.90;99.90;;;22.99;55.35;101096.44;4881410;28;97125;-69
2022/06/26 18:21:29;;;;;;;2.07;1.70;;;22.80;99.90;;;22.97;55.31;101098.41;4860051;28;98299;-70
2022/06/26 18:23:55;;;;;;;1.63;1.53;;;22.80;99.90;;;22.94;55.39;101093.28;4863578;28;97939;-70
2022/06/26 18:26:21;;;;;;;1.57;1.40;;;22.80;99.90;;;22.93;55.42;101086.19;4862763;28;97395;-70
2022/06/26 18:28:47;;;;;;;2.53;2.33;;;22.70;99.90;;;22.93;55.40;101080.81;4873488;28;97622;-70
2022/06/26 18:31:13;;;;;;;3.00;2.70;;;22.70;99.90;;;22.90;55.77;101083.75;4859492;28;97567;-70
2022/06/26 18:33:39;;;;;;;3.43;2.30;;;22.70;99.90;;;22.87;55.80;101092.06;4881061;28;97505;-70
2022/06/26 18:36:05;;;;;;;2.57;2.37;;;22.70;99.90;;;22.82;55.45;101093.28;4866947;28;97585;-70